Time;durP1;ratioP1;P1;durP2;ratioP2;P2;SDS_P1;SDS_P2;PMS_P1;PMS_P2;Temp;Humidity;BMP_temperature;BMP_pressure;BME280_temperature;BME280_humidity;BME280_pressure;Samples;Min_cycle;Max_cycle;Signal;HPM_P1;HPM_P2
2022/03/14 00:00:30;;;;;;;;;3.00;2.50;;;;;9.29;68.41;101456.06;5074683;27;45475;-69
2022/03/14 00:02:56;;;;;;;;;6.00;4.25;;;;;9.10;68.45;101441.75;5075112;27;45324;-70
2022/03/14 00:05:24;;;;;;;;;6.50;5.00;;;;;9.14;68.37;101456.66;5075325;27;45687;-69
2022/03/14 00:07:50;;;;;;;;;6.00;5.00;;;;;9.16;68.31;101454.06;5074771;27;45977;-69
2022/03/14 00:10:17;;;;;;;;;5.00;3.75;;;;;8.97;68.23;101429.28;5090044;27;45310;-70
2022/03/14 00:12:44;;;;;;;;;5.75;5.00;;;;;9.22;68.39;101481.19;5074832;27;45491;-69
2022/03/14 00:15:12;;;;;;;;;5.25;4.00;;;;;9.26;68.39;101482.16;5075227;27;45476;-69
2022/03/14 00:17:40;;;;;;;;;4.50;4.50;;;;;9.31;67.85;101486.59;5074120;27;45603;-71
2022/03/14 00:20:08;;;;;;;;;4.00;4.00;;;;;9.19;67.81;101468.06;5074700;28;45818;-69
2022/03/14 00:22:34;;;;;;;;;4.75;3.50;;;;;9.34;67.61;101499.72;5074798;27;45613;-69
2022/03/14 00:25:03;;;;;;;;;5.25;4.00;;;;;9.20;67.88;101485.50;5076354;27;45436;-70
2022/03/14 00:27:29;;;;;;;;;6.00;4.00;;;;;9.22;67.31;101499.50;5075780;27;46415;-68
2022/03/14 00:29:54;;;;;;;;;6.00;4.00;;;;;9.21;67.47;101510.81;5074551;28;45641;-71
2022/03/14 00:32:21;;;;;;;;;5.75;4.50;;;;;9.24;67.63;101523.06;5077943;28;45558;-70
2022/03/14 00:34:50;;;;;;;;;5.00;5.00;;;;;9.11;67.50;101507.13;5074611;27;45510;-69
2022/03/14 00:37:16;;;;;;;;;4.75;4.00;;;;;9.28;67.94;101533.59;5074271;28;46494;-69
2022/03/14 00:39:41;;;;;;;;;8.25;5.00;;;;;9.27;67.30;101531.81;5073999;27;45571;-70
2022/03/14 00:42:07;;;;;;;;;8.00;4.50;;;;;9.27;67.20;101525.72;5074404;28;45460;-71
2022/03/14 00:44:33;;;;;;;;;6.50;5.75;;;;;9.34;67.09;101538.94;5078050;27;45456;-68
2022/03/14 00:46:58;;;;;;;;;4.25;4.25;;;;;9.26;67.33;101537.03;5078501;27;46105;-69
2022/03/14 00:49:24;;;;;;;;;4.75;4.00;;;;;9.33;67.06;101542.41;5076957;28;45490;-70
2022/03/14 00:51:49;;;;;;;;;4.50;2.00;;;;;9.37;66.86;101545.09;5076692;28;45346;-70
2022/03/14 00:54:15;;;;;;;;;3.00;3.00;;;;;9.28;67.04;101533.59;5074109;27;45334;-71
2022/03/14 00:56:40;;;;;;;;;2.00;1.00;;;;;9.38;66.81;101539.03;5073772;28;45560;-69
2022/03/14 00:59:06;;;;;;;;;4.25;3.00;;;;;9.36;67.19;101557.28;5073594;27;45534;-69
2022/03/14 01:01:32;;;;;;;;;4.00;4.00;;;;;9.34;67.31;101575.53;5073686;28;45574;-69
2022/03/14 01:03:58;;;;;;;;;5.00;4.00;;;;;9.39;67.20;101580.88;5074395;27;45358;-70
2022/03/14 01:06:24;;;;;;;;;10.25;3.25;;;;;9.39;66.79;101578.25;5073576;27;46227;-70
2022/03/14 01:08:50;;;;;;;;;5.00;4.00;;;;;9.29;66.81;101573.69;5073501;27;45601;-70
2022/03/14 01:11:15;;;;;;;;;6.25;3.50;;;;;9.39;66.83;101593.06;5074006;28;45372;-70
2022/03/14 01:13:45;;;;;;;;;4.50;3.75;;;;;9.40;66.75;101597.47;5079776;27;45455;-72
2022/03/14 01:16:11;;;;;;;;;5.25;4.75;;;;;9.47;66.79;101605.47;5089738;27;47714;-69
2022/03/14 01:18:36;;;;;;;;;5.00;3.00;;;;;9.44;66.61;101591.41;5076334;27;45609;-71
2022/03/14 01:21:02;;;;;;;;;4.50;4.50;;;;;9.54;66.47;101609.97;5078581;27;45314;-71
2022/03/14 01:23:29;;;;;;;;;4.00;3.50;;;;;9.50;66.41;101608.13;5075501;27;45460;-70
2022/03/14 01:25:54;;;;;;;;;5.25;4.00;;;;;9.58;66.63;101623.97;5073203;28;45695;-68
2022/03/14 01:28:20;;;;;;;;;4.75;4.75;;;;;9.50;66.15;101608.13;5073217;27;45314;-70
2022/03/14 01:30:45;;;;;;;;;3.00;3.00;;;;;9.60;66.17;101622.25;5073827;27;45671;-69
2022/03/14 01:33:12;;;;;;;;;4.25;2.25;;;;;9.51;66.17;101622.06;5074937;27;45341;-71
2022/03/14 01:35:39;;;;;;;;;3.75;3.25;;;;;9.58;66.36;101630.94;5075353;27;45478;-69
2022/03/14 01:38:05;;;;;;;;;3.25;3.25;;;;;9.50;66.08;101617.72;5073080;27;45454;-70
2022/03/14 01:40:30;;;;;;;;;3.75;2.25;;;;;9.55;65.88;101631.75;5073001;27;45466;-68
2022/03/14 01:42:56;;;;;;;;;5.00;4.00;;;;;9.53;65.88;101617.75;5073613;27;45676;-68
2022/03/14 01:45:23;;;;;;;;;2.50;2.50;;;;;9.66;66.31;101638.09;5073324;27;46226;-70
2022/03/14 01:47:49;;;;;;;;;5.50;4.00;;;;;9.31;65.69;101577.22;5073738;28;45357;-69
2022/03/14 01:50:15;;;;;;;;;2.75;2.50;;;;;9.61;66.03;101638.84;5073709;27;45382;-69
2022/03/14 01:52:42;;;;;;;;;2.25;2.25;;;;;9.57;66.11;101639.66;5073611;27;45498;-69
2022/03/14 01:55:11;;;;;;;;;2.00;2.00;;;;;9.50;65.60;101634.28;5073035;28;45404;-70
2022/03/14 01:57:38;;;;;;;;;3.00;3.00;;;;;9.43;65.53;101631.50;5088233;27;45515;-69
2022/03/14 02:00:06;;;;;;;;;6.00;4.00;;;;;9.61;65.80;101662.38;5077080;27;45330;-69
2022/03/14 02:02:31;;;;;;;;;2.25;2.00;;;;;9.51;65.83;101658.69;5073400;27;45460;-68
2022/03/14 02:04:57;;;;;;;;;5.75;2.25;;;;;9.47;66.04;101657.75;5076871;27;45445;-69
2022/03/14 02:07:23;;;;;;;;;3.00;3.00;;;;;9.45;65.72;101650.72;5078539;27;45427;-68
2022/03/14 02:09:49;;;;;;;;;1.25;1.25;;;;;9.49;66.08;101653.44;5092294;27;45533;-69
2022/03/14 02:12:14;;;;;;;;;2.00;2.00;;;;;9.41;65.99;101643.66;5076718;28;45625;-67
2022/03/14 02:14:40;;;;;;;;;3.25;3.00;;;;;9.29;66.11;101623.38;5080220;27;46546;-68
2022/03/14 02:17:11;;;;;;;;;3.75;1.75;;;;;9.38;66.22;101643.59;5075358;27;45645;-68
2022/03/14 02:19:37;;;;;;;;;3.50;2.00;;;;;9.41;66.13;101647.16;5092563;27;45576;-70
2022/03/14 02:22:04;;;;;;;;;3.75;2.25;;;;;9.31;66.09;101638.22;5076959;27;45390;-69
2022/03/14 02:24:31;;;;;;;;;3.25;3.25;;;;;9.42;66.10;101661.09;5076389;27;45340;-69
2022/03/14 02:26:57;;;;;;;;;2.75;2.00;;;;;9.43;66.11;101663.75;5076291;27;45382;-69
2022/03/14 02:29:26;;;;;;;;;2.50;2.00;;;;;9.41;66.15;101660.22;5077119;28;45456;-69
2022/03/14 02:31:54;;;;;;;;;3.25;2.75;;;;;9.30;65.90;101641.72;5081108;27;45607;-67
2022/03/14 02:34:19;;;;;;;;;3.50;2.50;;;;;9.44;66.02;101662.91;5084584;27;46302;-68
2022/03/14 02:36:45;;;;;;;;;4.00;3.00;;;;;9.40;66.26;101661.09;5097258;27;45446;-68
2022/03/14 02:39:11;;;;;;;;;2.00;2.00;;;;;9.42;66.49;101668.94;5097091;27;45420;-69
2022/03/14 02:41:37;;;;;;;;;2.00;2.00;;;;;9.40;66.18;101662.84;5096871;27;45585;-68
2022/03/14 02:44:08;;;;;;;;;2.75;1.00;;;;;9.45;66.22;101671.66;5096410;27;45456;-68
2022/03/14 02:46:37;;;;;;;;;2.50;2.00;;;;;9.34;66.23;101666.16;5097020;27;45355;-68
2022/03/14 02:49:06;;;;;;;;;5.50;3.00;;;;;9.29;65.78;101663.47;5096210;27;45466;-69
2022/03/14 02:51:38;;;;;;;;;2.50;2.50;;;;;9.34;66.17;101689.69;5096581;27;45615;-68
2022/03/14 02:54:05;;;;;;;;;4.00;2.00;;;;;9.31;66.30;101692.25;5096498;27;45324;-70
2022/03/14 02:56:32;;;;;;;;;6.00;4.00;;;;;9.22;66.14;101679.84;5099149;27;45333;-69
2022/03/14 02:58:57;;;;;;;;;2.75;2.75;;;;;9.13;66.07;101671.78;5096907;27;45449;-68
2022/03/14 03:01:23;;;;;;;;;4.50;2.75;;;;;9.24;66.27;101711.28;5096371;27;45554;-68
2022/03/14 03:03:49;;;;;;;;;5.00;2.75;;;;;9.11;66.31;101697.91;5095410;27;45890;-68
2022/03/14 03:06:17;;;;;;;;;3.00;2.50;;;;;9.17;66.52;101719.81;5111421;27;45921;-68
2022/03/14 03:08:44;;;;;;;;;4.50;4.00;;;;;9.05;66.65;101708.22;5098746;27;45642;-66
2022/03/14 03:11:12;;;;;;;;;6.50;3.50;;;;;9.16;66.49;101731.09;5099943;27;45407;-66
2022/03/14 03:13:41;;;;;;;;;5.25;3.00;;;;;9.15;66.82;101745.91;5103777;27;45386;-68
2022/03/14 03:16:13;;;;;;;;;7.00;4.00;;;;;9.12;66.51;101754.56;5101244;27;45258;-67
2022/03/14 03:18:42;;;;;;;;;4.00;4.00;;;;;8.90;66.84;101721.81;5100473;27;45349;-68
2022/03/14 03:21:08;;;;;;;;;5.00;3.00;;;;;8.87;66.76;101740.03;5116030;27;45637;-67
2022/03/14 03:23:35;;;;;;;;;4.75;4.25;;;;;8.94;66.98;101768.91;5098523;27;45463;-67
2022/03/14 03:26:05;;;;;;;;;6.00;4.25;;;;;8.54;66.95;101713.03;5093529;27;45670;-69
2022/03/14 03:28:35;;;;;;;;;4.50;3.25;;;;;8.80;67.01;101761.59;5096864;27;45507;-68
2022/03/14 03:31:13;;;;;;;;;4.75;4.50;;;;;8.81;66.84;101783.38;5099249;27;45351;-68
2022/03/14 03:33:40;;;;;;;;;4.25;3.75;;;;;8.72;67.31;101780.53;5105717;27;46897;-68
2022/03/14 03:36:07;;;;;;;;;4.00;4.00;;;;;8.66;67.84;101778.63;5075797;27;45467;-68
2022/03/14 03:38:35;;;;;;;;;3.00;3.00;;;;;8.61;67.62;101780.22;5076679;27;45294;-68
2022/03/14 03:41:01;;;;;;;;;4.50;4.50;;;;;8.58;67.43;101791.47;5077185;27;45563;-69
2022/03/14 03:43:30;;;;;;;;;5.00;3.75;;;;;8.43;67.69;101773.69;5098295;27;45539;-67
2022/03/14 03:45:56;;;;;;;;;7.75;4.50;;;;;8.31;67.93;101773.31;5097053;27;45379;-68
2022/03/14 03:48:22;;;;;;;;;4.50;4.00;;;;;8.44;67.63;101795.44;5097103;27;45393;-68
2022/03/14 03:50:48;;;;;;;;;4.00;4.00;;;;;8.41;67.74;101795.38;5102631;27;45472;-69
2022/03/14 03:53:14;;;;;;;;;6.00;4.00;;;;;8.16;67.75;101759.81;5104536;27;45519;-69
2022/03/14 03:55:40;;;;;;;;;5.00;3.75;;;;;8.41;67.81;101817.13;5099746;27;45479;-70
2022/03/14 03:58:06;;;;;;;;;5.25;3.25;;;;;8.38;67.96;101819.63;5096106;27;45384;-70
2022/03/14 04:00:32;;;;;;;;;6.00;3.75;;;;;8.04;67.88;101757.75;5099305;27;45565;-70
2022/03/14 04:02:59;;;;;;;;;4.00;4.00;;;;;8.38;67.53;101830.06;5118849;27;45461;-70
2022/03/14 04:05:27;;;;;;;;;5.00;3.50;;;;;8.37;68.02;101828.28;5101929;27;45329;-69
2022/03/14 04:07:59;;;;;;;;;8.25;5.00;;;;;8.32;68.14;101837.72;5093452;27;45333;-69
2022/03/14 04:10:28;;;;;;;;;3.50;3.50;;;;;8.24;67.96;101834.91;5093329;27;45519;-69
2022/03/14 04:13:00;;;;;;;;;5.25;3.50;;;;;8.19;67.95;101831.28;5095457;27;45753;-69
2022/03/14 04:15:27;;;;;;;;;3.00;3.00;;;;;8.31;67.68;101845.53;5115945;27;45434;-70
2022/03/14 04:17:59;;;;;;;;;5.00;3.00;;;;;8.21;67.86;101833.91;5097847;27;45387;-70
2022/03/14 04:20:25;;;;;;;;;4.00;2.25;;;;;8.31;67.55;101850.75;5096381;27;45442;-69
2022/03/14 04:22:52;;;;;;;;;8.00;4.25;;;;;8.16;67.71;101835.50;5089282;27;46517;-70
2022/03/14 04:25:17;;;;;;;;;8.75;4.00;;;;;8.19;67.25;101835.63;5084803;27;45439;-68
2022/03/14 04:27:43;;;;;;;;;4.00;2.75;;;;;8.21;67.51;101844.34;5095338;27;45455;-70
2022/03/14 04:30:10;;;;;;;;;6.00;4.00;;;;;8.19;67.24;101846.94;5110767;27;45475;-69
2022/03/14 04:32:36;;;;;;;;;8.25;4.75;;;;;8.34;67.08;101867.38;5110799;27;47275;-68
2022/03/14 04:35:02;;;;;;;;;4.25;4.25;;;;;8.36;67.18;101875.25;5086339;27;45502;-70
2022/03/14 04:37:35;;;;;;;;;7.00;4.00;;;;;8.35;67.20;101877.00;5088590;27;45508;-69
2022/03/14 04:40:05;;;;;;;;;5.00;4.50;;;;;8.35;67.25;101882.22;5098917;27;45424;-70
2022/03/14 04:42:32;;;;;;;;;5.00;3.50;;;;;8.36;67.03;101891.78;5091919;27;45576;-69
2022/03/14 04:44:58;;;;;;;;;6.50;3.75;;;;;8.23;67.18;101877.50;5087144;27;45318;-70
2022/03/14 04:47:25;;;;;;;;;4.50;3.75;;;;;8.05;66.92;101845.63;5084890;27;45428;-71
2022/03/14 04:49:53;;;;;;;;;5.00;3.75;;;;;8.39;66.82;101901.44;5091094;27;45371;-70
2022/03/14 04:52:18;;;;;;;;;7.00;4.75;;;;;8.31;66.75;101897.72;5076658;27;46510;-69
2022/03/14 04:54:45;;;;;;;;;7.00;5.00;;;;;8.23;66.75;101890.56;5086344;27;45450;-71
2022/03/14 04:57:10;;;;;;;;;7.25;5.00;;;;;7.95;66.82;101852.31;5086983;27;45476;-69
2022/03/14 04:59:36;;;;;;;;;7.00;5.00;;;;;8.12;67.18;101896.28;5094732;27;45726;-69
2022/03/14 05:02:02;;;;;;;;;6.00;3.50;;;;;8.21;67.04;101915.72;5094702;27;45777;-69
2022/03/14 05:04:31;;;;;;;;;8.50;5.25;;;;;7.90;67.03;101866.03;5080627;27;45464;-70
2022/03/14 05:06:58;;;;;;;;;4.25;4.25;;;;;8.21;67.13;101922.63;5074761;27;45443;-70
2022/03/14 05:09:25;;;;;;;;;7.00;6.00;;;;;8.19;67.17;101919.13;5078688;27;45526;-69
2022/03/14 05:11:51;;;;;;;;;5.25;5.00;;;;;7.96;67.31;101884.50;5077499;28;45394;-69
2022/03/14 05:14:17;;;;;;;;;5.00;5.00;;;;;8.04;67.19;101893.41;5075964;27;45951;-68
2022/03/14 05:16:43;;;;;;;;;10.50;6.00;;;;;8.24;67.00;101936.69;5074835;27;45325;-69
2022/03/14 05:19:08;;;;;;;;;6.25;3.75;;;;;8.14;66.81;101918.97;5073926;27;45347;-70
2022/03/14 05:21:34;;;;;;;;;7.00;5.25;;;;;8.29;66.46;101947.28;5073505;27;45482;-69
2022/03/14 05:24:05;;;;;;;;;8.00;6.50;;;;;8.26;66.50;101939.34;5073490;27;45531;-71
2022/03/14 05:26:31;;;;;;;;;7.00;5.00;;;;;8.13;66.33;101903.25;5078050;27;45528;-69
2022/03/14 05:28:57;;;;;;;;;5.75;5.00;;;;;8.27;66.45;101934.16;5078627;28;45436;-69
2022/03/14 05:31:23;;;;;;;;;6.00;3.50;;;;;7.94;66.23;101871.38;5078109;27;45502;-70
2022/03/14 05:33:49;;;;;;;;;7.75;4.25;;;;;8.36;66.40;101937.91;5078392;28;45421;-70
2022/03/14 05:36:15;;;;;;;;;4.50;4.25;;;;;8.44;65.83;101947.75;5078255;27;45300;-69
2022/03/14 05:38:41;;;;;;;;;5.50;5.50;;;;;8.44;66.03;101952.09;5078238;27;45406;-69
2022/03/14 05:41:07;;;;;;;;;7.00;5.25;;;;;8.42;66.12;101945.94;5079716;27;45452;-69
2022/03/14 05:43:37;;;;;;;;;6.25;4.00;;;;;8.38;66.05;101944.94;5076968;27;45676;-69
2022/03/14 05:46:07;;;;;;;;;6.00;4.50;;;;;8.52;65.76;101970.59;5077363;27;45338;-70
2022/03/14 05:48:35;;;;;;;;;6.00;5.75;;;;;8.53;65.58;101972.38;5077415;27;45424;-70
2022/03/14 05:51:02;;;;;;;;;8.00;8.00;;;;;8.51;65.87;101967.09;5076434;27;45462;-70
2022/03/14 05:53:30;;;;;;;;;5.75;4.50;;;;;8.27;65.42;101934.16;5077055;27;45378;-70
2022/03/14 05:55:56;;;;;;;;;8.25;7.50;;;;;8.46;65.64;101974.81;5075309;27;45597;-70
2022/03/14 05:58:22;;;;;;;;;5.00;4.00;;;;;8.43;65.61;101976.44;5076741;27;45400;-70
2022/03/14 06:00:48;;;;;;;;;6.50;5.00;;;;;8.18;65.45;101946.91;5076956;27;45439;-69
2022/03/14 06:03:15;;;;;;;;;5.25;5.00;;;;;8.41;65.53;101985.97;5080003;27;45518;-69
2022/03/14 06:05:40;;;;;;;;;7.50;4.75;;;;;8.41;65.97;101991.19;5085921;27;45499;-69
2022/03/14 06:08:06;;;;;;;;;4.50;4.50;;;;;8.43;65.55;101982.53;5097616;27;45398;-69
2022/03/14 06:10:33;;;;;;;;;7.00;4.00;;;;;8.41;65.52;101981.63;5097316;27;46268;-69
2022/03/14 06:12:58;;;;;;;;;4.75;4.75;;;;;8.36;65.65;101979.69;5097146;27;45439;-70
2022/03/14 06:15:24;;;;;;;;;7.00;4.00;;;;;8.38;65.36;101985.84;5097250;27;45503;-70
2022/03/14 06:17:49;;;;;;;;;9.75;7.00;;;;;8.34;65.57;101990.06;5097220;27;45685;-69
2022/03/14 06:20:19;;;;;;;;;4.00;3.00;;;;;8.24;65.63;101969.75;5097668;27;46477;-70
2022/03/14 06:22:49;;;;;;;;;6.00;5.50;;;;;8.37;65.73;101997.97;5099825;27;45427;-68
2022/03/14 06:25:17;;;;;;;;;6.00;5.00;;;;;8.36;65.57;101996.22;5096445;27;45515;-69
2022/03/14 06:27:43;;;;;;;;;6.25;5.00;;;;;8.39;65.52;101995.44;5094503;27;45511;-70
2022/03/14 06:30:14;;;;;;;;;6.50;5.75;;;;;8.36;65.58;102003.16;5096436;27;45488;-70
2022/03/14 06:32:42;;;;;;;;;6.00;5.00;;;;;8.50;65.34;102028.03;5092982;27;45368;-70
2022/03/14 06:35:14;;;;;;;;;7.00;4.00;;;;;8.56;65.23;102035.16;5095942;27;45302;-69
2022/03/14 06:37:40;;;;;;;;;3.50;3.50;;;;;8.57;65.24;102042.16;5097650;27;45565;-69
2022/03/14 06:40:06;;;;;;;;;9.50;8.25;;;;;8.15;65.17;101970.31;5096114;27;45571;-69
2022/03/14 06:42:32;;;;;;;;;10.00;7.00;;;;;8.67;65.01;102058.16;5095304;27;45392;-70
2022/03/14 06:45:02;;;;;;;;;12.50;6.75;;;;;8.67;65.26;102058.16;5110361;27;45609;-69
2022/03/14 06:47:28;;;;;;;;;8.00;8.00;;;;;8.66;65.20;102071.16;5094484;27;45491;-70
2022/03/14 06:49:54;;;;;;;;;12.00;7.50;;;;;8.62;65.17;102064.97;5096196;27;45359;-71
2022/03/14 06:52:20;;;;;;;;;6.50;4.75;;;;;8.61;65.11;102070.13;5096931;27;45429;-69
2022/03/14 06:54:46;;;;;;;;;6.75;6.25;;;;;8.70;64.86;102086.97;5096561;27;45426;-68
2022/03/14 06:57:12;;;;;;;;;6.00;6.00;;;;;8.76;65.10;102088.91;5096548;27;45411;-69
2022/03/14 06:59:38;;;;;;;;;7.50;5.75;;;;;8.69;64.64;102084.31;5099705;27;46097;-69
2022/03/14 07:02:05;;;;;;;;;7.50;6.00;;;;;8.79;64.42;102101.16;5100582;27;45792;-69
2022/03/14 07:04:30;;;;;;;;;8.75;6.75;;;;;8.78;64.55;102101.97;5099340;27;45497;-69
2022/03/14 07:06:59;;;;;;;;;5.00;5.00;;;;;8.63;64.32;102073.66;5096524;27;45461;-69
2022/03/14 07:09:24;;;;;;;;;9.00;9.00;;;;;8.84;64.36;102115.25;5097311;27;46645;-70
2022/03/14 07:11:51;;;;;;;;;10.75;8.50;;;;;8.70;64.06;102091.31;5100705;27;45416;-69
2022/03/14 07:14:22;;;;;;;;;10.75;10.00;;;;;8.67;64.84;102109.50;5097374;27;45503;-70
2022/03/14 07:16:48;;;;;;;;;10.75;9.50;;;;;8.59;64.70;102122.31;5097167;27;45685;-70
2022/03/14 07:19:14;;;;;;;;;9.50;9.50;;;;;8.59;64.90;102138.00;5095663;27;46452;-68
2022/03/14 07:21:40;;;;;;;;;12.00;10.25;;;;;8.57;64.83;102144.00;5095985;27;45717;-70
2022/03/14 07:24:06;;;;;;;;;14.25;12.00;;;;;8.55;64.84;102132.63;5112151;27;45407;-68
2022/03/14 07:26:32;;;;;;;;;10.75;10.25;;;;;8.66;65.13;102136.44;5096238;27;45450;-69
2022/03/14 07:28:58;;;;;;;;;12.00;10.00;;;;;8.61;64.78;102125.88;5099188;27;45760;-71
2022/03/14 07:31:24;;;;;;;;;28.00;23.50;;;;;8.60;65.02;102131.03;5096098;27;45829;-70
2022/03/14 07:33:50;;;;;;;;;15.50;12.75;;;;;8.69;64.65;102147.00;5097184;27;45551;-71
2022/03/14 07:36:17;;;;;;;;;14.25;9.50;;;;;8.59;64.44;102117.09;5100074;27;45382;-70
2022/03/14 07:38:44;;;;;;;;;12.00;9.25;;;;;8.77;64.59;102147.25;5112611;27;47725;-70
2022/03/14 07:41:13;;;;;;;;;11.00;10.00;;;;;8.31;64.59;102077.84;5095553;27;45456;-70
2022/03/14 07:43:40;;;;;;;;;12.00;10.25;;;;;8.36;64.51;102110.22;5099025;27;45321;-72
2022/03/14 07:46:06;;;;;;;;;8.00;7.50;;;;;8.55;64.81;102159.63;5095195;27;45557;-69
2022/03/14 07:48:32;;;;;;;;;12.00;11.00;;;;;8.58;65.18;102177.09;5095077;27;45293;-70
2022/03/14 07:50:57;;;;;;;;;10.00;10.00;;;;;8.36;64.75;102145.03;5113199;27;45352;-68
2022/03/14 07:53:23;;;;;;;;;12.75;10.25;;;;;8.48;65.16;102179.41;5112113;27;45388;-70
2022/03/14 07:55:49;;;;;;;;;12.75;11.00;;;;;8.45;65.11;102189.75;5095566;27;45391;-71
2022/03/14 07:58:14;;;;;;;;;11.00;11.00;;;;;8.19;65.63;102164.47;5090999;27;46116;-70
2022/03/14 08:00:40;;;;;;;;;13.75;11.75;;;;;8.34;65.56;102198.91;5090877;27;45656;-71
2022/03/14 08:03:06;;;;;;;;;17.00;11.00;;;;;8.44;65.47;102214.06;5100930;27;45570;-70
2022/03/14 08:05:32;;;;;;;;;13.25;10.00;;;;;8.41;65.25;102189.59;5096529;27;45881;-68
2022/03/14 08:07:59;;;;;;;;;10.50;10.25;;;;;8.63;65.69;102212.09;5094573;27;46246;-69
2022/03/14 08:10:26;;;;;;;;;20.00;16.00;;;;;8.64;65.96;102211.28;5095032;27;45489;-69
2022/03/14 08:12:54;;;;;;;;;14.00;13.00;;;;;8.69;65.31;102192.28;5096143;27;45336;-71
2022/03/14 08:15:28;;;;;;;;;13.50;12.00;;;;;8.81;65.20;102201.38;5097151;27;45417;-70
2022/03/14 08:17:59;;;;;;;;;11.00;10.00;;;;;8.73;64.71;102174.97;5110403;27;47203;-69
2022/03/14 08:20:26;;;;;;;;;8.25;8.25;;;;;8.89;64.68;102182.47;5110743;27;45581;-72
2022/03/14 08:22:53;;;;;;;;;10.75;8.75;;;;;9.07;64.10;102197.00;5094447;27;45420;-70
2022/03/14 08:25:20;;;;;;;;;12.75;8.50;;;;;9.11;64.11;102207.59;5099934;27;45459;-72
2022/03/14 08:27:46;;;;;;;;;11.75;9.25;;;;;9.09;64.00;102203.16;5117506;27;47362;-73
2022/03/14 08:30:14;;;;;;;;;13.00;13.00;;;;;9.17;63.95;102219.97;5097663;27;45402;-69
2022/03/14 08:32:40;;;;;;;;;13.50;11.50;;;;;9.15;64.00;102229.47;5096194;27;45540;-72
2022/03/14 08:35:10;;;;;;;;;14.00;12.50;;;;;9.18;64.30;102232.19;5095995;27;45312;-70
2022/03/14 08:37:47;;;;;;;;;12.00;10.75;;;;;9.01;63.71;102205.50;5095170;27;45490;-71
2022/03/14 08:40:16;;;;;;;;;10.75;8.00;;;;;8.82;63.90;102153.50;5099323;27;45430;-71
2022/03/14 08:42:44;;;;;;;;;8.75;8.75;;;;;9.17;64.00;102201.66;5116329;27;45306;-69
2022/03/14 08:45:10;;;;;;;;;10.00;10.00;;;;;9.46;63.50;102243.50;5100813;27;45305;-72
2022/03/14 08:47:37;;;;;;;;;9.25;9.25;;;;;9.51;63.40;102234.06;5095731;27;45382;-68
2022/03/14 08:50:07;;;;;;;;;9.75;9.00;;;;;9.58;62.99;102245.59;5096679;27;45460;-72
2022/03/14 08:52:34;;;;;;;;;10.25;8.25;;;;;9.62;63.14;102250.09;5097677;27;45343;-70
2022/03/14 08:55:02;;;;;;;;;12.75;10.00;;;;;9.50;62.77;102217.50;5097616;27;45372;-69
2022/03/14 08:57:27;;;;;;;;;10.00;10.00;;;;;9.76;62.30;102260.13;5097858;27;46496;-70
2022/03/14 08:59:54;;;;;;;;;9.00;8.25;;;;;9.89;62.73;102257.88;5112640;27;45966;-69
2022/03/14 09:02:20;;;;;;;;;11.25;9.50;;;;;9.90;62.43;102249.19;5095174;27;45353;-69
2022/03/14 09:04:45;;;;;;;;;8.00;7.75;;;;;10.11;62.16;102264.63;5095595;27;45596;-70
2022/03/14 09:07:11;;;;;;;;;15.00;8.00;;;;;10.19;62.05;102250.88;5096208;27;45382;-68
2022/03/14 09:09:37;;;;;;;;;9.25;8.50;;;;;10.41;61.82;102267.22;5095719;27;45372;-70
2022/03/14 09:12:03;;;;;;;;;15.25;11.75;;;;;10.53;61.39;102262.31;5095261;27;45340;-71
2022/03/14 09:14:31;;;;;;;;;9.25;9.25;;;;;10.58;61.11;102259.81;5098416;27;45405;-70
2022/03/14 09:16:57;;;;;;;;;8.75;8.75;;;;;10.54;60.96;102227.41;5099188;27;46326;-69
2022/03/14 09:19:24;;;;;;;;;9.50;8.50;;;;;10.83;60.86;102264.84;5100328;27;45954;-69
2022/03/14 09:21:49;;;;;;;;;12.75;12.00;;;;;10.89;60.78;102266.75;5103437;27;45361;-69
2022/03/14 09:24:15;;;;;;;;;13.25;12.25;;;;;10.69;60.56;102218.16;5098996;27;45366;-68
2022/03/14 09:26:40;;;;;;;;;11.25;11.25;;;;;10.82;60.35;102251.72;5101036;27;45466;-70
2022/03/14 09:29:08;;;;;;;;;19.50;13.75;;;;;10.92;60.71;102276.41;5116963;27;45349;-68
2022/03/14 09:31:33;;;;;;;;;15.25;11.50;;;;;11.03;60.33;102270.59;5115032;27;45377;-69
2022/03/14 09:34:00;;;;;;;;;16.00;13.00;;;;;10.80;59.96;102203.59;5115310;27;45448;-70
2022/03/14 09:36:25;;;;;;;;;15.25;11.25;;;;;11.16;60.23;102261.28;5099518;27;45977;-70
2022/03/14 09:38:51;;;;;;;;;15.25;9.75;;;;;11.20;59.62;102257.88;5100424;27;45411;-70
2022/03/14 09:41:19;;;;;;;;;16.00;12.00;;;;;11.36;59.53;102280.09;5098009;27;45981;-70
2022/03/14 09:43:47;;;;;;;;;13.75;12.25;;;;;11.44;59.51;102278.56;5098061;27;45327;-68
2022/03/14 09:46:14;;;;;;;;;17.25;12.50;;;;;11.45;58.84;102280.31;5098264;27;45469;-69
2022/03/14 09:48:46;;;;;;;;;11.75;10.50;;;;;11.35;59.64;102265.22;5098793;27;45230;-71
2022/03/14 09:51:12;;;;;;;;;15.00;10.75;;;;;11.46;59.45;102276.88;5098954;27;45318;-70
2022/03/14 09:53:38;;;;;;;;;13.25;10.50;;;;;11.58;59.04;102280.59;5098161;27;45447;-70
2022/03/14 09:56:04;;;;;;;;;10.75;10.75;;;;;11.78;58.81;102281.06;5097744;27;46077;-70
2022/03/14 09:58:30;;;;;;;;;12.00;10.00;;;;;11.85;58.27;102264.56;5097216;27;45593;-70
2022/03/14 10:00:58;;;;;;;;;14.75;10.75;;;;;12.06;58.34;102274.69;5097608;27;45491;-69
2022/03/14 10:03:23;;;;;;;;;11.25;11.25;;;;;12.12;58.09;102271.28;5097701;27;45812;-70
2022/03/14 10:05:49;;;;;;;;;11.75;10.25;;;;;12.18;58.22;102280.16;5099079;27;45471;-70
2022/03/14 10:08:15;;;;;;;;;13.50;12.25;;;;;12.29;57.42;102278.66;5098366;27;45445;-70
2022/03/14 10:10:42;;;;;;;;;12.00;9.50;;;;;12.32;57.18;102274.31;5098692;27;45551;-70
2022/03/14 10:13:16;;;;;;;;;13.00;9.00;;;;;12.34;57.45;102255.09;5098399;27;45601;-70
2022/03/14 10:15:42;;;;;;;;;12.50;11.00;;;;;12.63;56.78;102265.25;5114943;27;47548;-70
2022/03/14 10:18:15;;;;;;;;;12.25;10.00;;;;;12.73;56.48;102280.31;5104409;27;45203;-70
2022/03/14 10:21:03;;;;;;;;;10.00;8.00;;;;;12.77;56.23;102274.28;5101112;27;45495;-69
2022/03/14 10:23:43;;;;;;;;;8.75;8.75;;;;;12.86;55.80;102268.28;5097563;27;45549;-71
2022/03/14 10:26:16;;;;;;;;;15.25;12.00;;;;;13.02;55.49;102286.06;5096607;27;46097;-69
2022/03/14 10:28:48;;;;;;;;;15.75;10.00;;;;;13.08;55.67;102288.81;5098077;27;45354;-70
2022/03/14 10:31:30;;;;;;;;;9.25;9.25;;;;;13.14;54.55;102294.19;5099436;27;45653;-70
2022/03/14 10:34:03;;;;;;;;;8.00;8.00;;;;;13.09;54.76;102259.00;5098474;27;45688;-72
2022/03/14 10:36:51;;;;;;;;;16.00;13.00;;;;;13.30;54.09;102274.28;5102491;27;45468;-68
2022/03/14 10:39:28;;;;;;;;;8.00;7.00;;;;;13.18;54.09;102245.13;5096734;27;45322;-70
2022/03/14 10:42:00;;;;;;;;;12.00;8.75;;;;;13.78;53.90;102301.28;5098248;27;45498;-71
2022/03/14 10:44:25;;;;;;;;;13.50;10.00;;;;;13.82;52.99;102268.00;5098694;27;45335;-71
2022/03/14 10:46:51;;;;;;;;;11.00;9.25;;;;;13.90;53.48;102261.94;5099163;27;46251;-69
2022/03/14 10:49:18;;;;;;;;;10.25;8.25;;;;;14.21;52.71;102286.94;5099269;27;45364;-70
2022/03/14 10:51:58;;;;;;;;;13.00;9.25;;;;;14.30;52.36;102272.09;5100679;27;45376;-71
2022/03/14 10:54:24;;;;;;;;;8.75;7.25;;;;;14.61;51.19;102273.31;5103468;27;45426;-70
2022/03/14 10:57:14;;;;;;;;;10.00;8.50;;;;;15.23;50.25;102275.63;5099411;27;45713;-70
2022/03/14 10:59:43;;;;;;;;;9.33;7.67;;;;;16.93;47.46;102278.06;5098689;27;45280;-71
2022/03/14 11:02:11;;;;;;;;;9.33;7.67;;;;;18.67;43.23;102268.66;5098121;27;45770;-70
2022/03/14 11:04:48;;;;;;;;;5.00;5.00;;;;;20.04;39.99;102239.84;5098082;27;45638;-69
2022/03/14 11:07:16;;;;;;;;;8.33;6.00;;;;;20.65;38.43;102261.19;5098006;27;46501;-69
2022/03/14 11:09:51;;;;;;;;;7.67;7.67;;;;;20.59;38.28;102256.81;5099841;27;45785;-70
2022/03/14 11:12:21;;;;;;;;;7.67;5.00;;;;;20.74;38.24;102191.81;5100747;27;45438;-70
2022/03/14 11:14:55;;;;;;;;;10.33;6.00;;;;;21.38;37.34;102246.59;5101454;27;45281;-71
2022/03/14 11:17:23;;;;;;;;;11.00;7.00;;;;;21.72;36.77;102267.28;5100059;27;45550;-69
2022/03/14 11:19:50;;;;;;;;;7.33;4.33;;;;;21.68;36.55;102264.69;5098874;27;45712;-71
2022/03/14 11:22:16;;;;;;;;;8.00;6.67;;;;;21.61;36.26;102255.94;5096461;27;45448;-69
2022/03/14 11:24:48;;;;;;;;;7.00;5.00;;;;;21.19;36.17;102242.50;5100389;27;45785;-71
2022/03/14 11:27:21;;;;;;;;;7.33;6.67;;;;;20.93;36.91;102241.19;5101399;27;45373;-70